Time;durP1;ratioP1;P1;durP2;ratioP2;P2;SDS_P1;SDS_P2;PMS_P1;PMS_P2;Temp;Humidity;BMP_temperature;BMP_pressure;BME280_temperature;BME280_humidity;BME280_pressure;Samples;Min_cycle;Max_cycle;Signal;HPM_P1;HPM_P2
2021/10/07 00:00:14;;;;;;;3.17;1.80;;;10.60;99.90;;;;;;4990645;28;20617;-69
2021/10/07 00:02:41;;;;;;;2.30;2.00;;;10.60;99.90;;;;;;4991562;28;20609;-69
2021/10/07 00:05:11;;;;;;;2.93;1.80;;;10.60;99.90;;;;;;4992585;28;20220;-69
2021/10/07 00:07:38;;;;;;;5.33;2.00;;;10.50;99.90;;;;;;4992889;28;20201;-69
2021/10/07 00:10:07;;;;;;;3.73;1.70;;;10.40;99.90;;;;;;4989546;28;20271;-69
2021/10/07 00:12:34;;;;;;;3.80;2.23;;;10.40;99.90;;;;;;4993878;28;20256;-69
2021/10/07 00:15:01;;;;;;;2.73;1.90;;;10.50;99.90;;;;;;4994796;28;20209;-69
2021/10/07 00:17:29;;;;;;;2.20;2.00;;;10.40;99.90;;;;;;4990761;28;20255;-69
2021/10/07 00:19:57;;;;;;;4.50;1.70;;;10.30;99.90;;;;;;4991057;28;20217;-69
2021/10/07 00:22:24;;;;;;;2.80;1.90;;;10.40;99.90;;;;;;4991574;28;20208;-69
2021/10/07 00:24:51;;;;;;;2.57;2.20;;;10.40;99.90;;;;;;4991890;28;20268;-69
2021/10/07 00:27:18;;;;;;;3.73;2.10;;;10.30;99.90;;;;;;4991627;28;20635;-69
2021/10/07 00:29:46;;;;;;;2.17;1.97;;;10.10;99.90;;;;;;4990147;28;20205;-69
2021/10/07 00:32:16;;;;;;;3.10;2.40;;;10.00;99.90;;;;;;4993044;28;20216;-69
2021/10/07 00:40:25;;;;;;;5.00;1.90;;;10.10;99.90;;;;;;4985207;28;20232;-69
2021/10/07 00:42:53;;;;;;;2.23;1.90;;;10.00;99.90;;;;;;4991073;28;20213;-69
2021/10/07 00:45:20;;;;;;;4.37;2.10;;;9.80;99.90;;;;;;4993767;28;20239;-69
2021/10/07 00:47:47;;;;;;;3.23;2.13;;;9.70;99.90;;;;;;4988302;28;20209;-69
2021/10/07 00:50:16;;;;;;;2.80;2.30;;;9.90;99.90;;;;;;4990944;28;20620;-69
2021/10/07 00:52:43;;;;;;;3.83;2.77;;;9.90;99.90;;;;;;4990569;28;20209;-69
2021/10/07 00:55:12;;;;;;;7.17;2.70;;;10.10;99.90;;;;;;4987595;28;20212;-69
2021/10/07 00:57:40;;;;;;;3.90;2.60;;;10.20;99.90;;;;;;4992593;28;20679;-69
2021/10/07 01:00:08;;;;;;;4.83;2.50;;;10.20;99.90;;;;;;4986443;28;20327;-70
2021/10/07 01:02:35;;;;;;;4.30;2.50;;;10.10;99.90;;;;;;4989366;28;20208;-69
2021/10/07 01:05:02;;;;;;;2.40;2.20;;;10.20;99.90;;;;;;4992475;28;20259;-69
2021/10/07 01:07:30;;;;;;;3.23;2.30;;;10.10;99.90;;;;;;4990181;28;20252;-69
2021/10/07 01:09:57;;;;;;;3.00;2.50;;;10.00;99.90;;;;;;4984798;28;20213;-69
2021/10/07 01:12:25;;;;;;;3.60;2.90;;;9.80;99.90;;;;;;4992588;28;20256;-69
2021/10/07 01:14:52;;;;;;;4.07;2.40;;;9.70;99.90;;;;;;4988109;28;20205;-69
2021/10/07 01:17:21;;;;;;;4.43;2.40;;;9.80;99.90;;;;;;4988033;28;20304;-69
2021/10/07 01:19:50;;;;;;;5.33;3.07;;;10.00;99.90;;;;;;4992138;28;20241;-69
2021/10/07 01:22:19;;;;;;;4.20;2.87;;;10.20;99.90;;;;;;4987106;28;20261;-69
2021/10/07 01:24:47;;;;;;;4.77;2.67;;;10.30;99.90;;;;;;4992378;28;20256;-69
2021/10/07 01:27:14;;;;;;;3.20;2.70;;;10.30;99.90;;;;;;4992197;28;20201;-69
2021/10/07 01:29:42;;;;;;;3.70;2.70;;;10.20;99.90;;;;;;4987292;28;20255;-69
2021/10/07 01:32:10;;;;;;;4.30;3.00;;;10.20;99.90;;;;;;4988920;28;20200;-69
2021/10/07 01:34:38;;;;;;;9.03;2.87;;;10.20;99.90;;;;;;4990665;28;20207;-69
2021/10/07 01:37:06;;;;;;;4.13;2.70;;;10.20;99.90;;;;;;4990068;28;20205;-69
2021/10/07 01:39:33;;;;;;;5.07;2.20;;;10.30;99.90;;;;;;4985731;28;20212;-69
2021/10/07 01:42:00;;;;;;;3.53;2.80;;;10.40;99.90;;;;;;4988397;28;20268;-69
2021/10/07 01:44:28;;;;;;;4.23;2.40;;;10.50;99.90;;;;;;4988495;28;20255;-69
2021/10/07 01:46:55;;;;;;;5.53;2.57;;;10.40;99.90;;;;;;4988067;28;20710;-69
2021/10/07 01:49:22;;;;;;;3.97;2.80;;;10.40;99.90;;;;;;4988812;28;20205;-69
2021/10/07 01:51:49;;;;;;;6.10;2.67;;;10.50;99.90;;;;;;4992978;28;20259;-69
2021/10/07 01:54:18;;;;;;;4.80;2.67;;;10.60;99.90;;;;;;4987287;28;20209;-69
2021/10/07 01:56:45;;;;;;;3.60;2.53;;;10.30;99.90;;;;;;4990035;28;20209;-69
2021/10/07 01:59:12;;;;;;;5.53;3.20;;;10.20;99.90;;;;;;4992637;28;20255;-69
2021/10/07 02:01:39;;;;;;;3.70;3.00;;;10.10;99.90;;;;;;4990865;28;20225;-69
2021/10/07 02:04:07;;;;;;;4.60;2.70;;;10.10;99.90;;;;;;4985667;28;20201;-69
2021/10/07 02:06:36;;;;;;;6.07;2.90;;;10.10;99.90;;;;;;4988898;28;20293;-69
2021/10/07 02:09:04;;;;;;;4.47;2.70;;;10.20;99.90;;;;;;4978137;28;20613;-69
2021/10/07 02:11:32;;;;;;;3.50;2.60;;;10.20;99.90;;;;;;4990550;28;20212;-69
2021/10/07 02:14:00;;;;;;;4.20;2.90;;;10.20;99.90;;;;;;4990763;28;20271;-69
2021/10/07 02:16:27;;;;;;;4.47;2.63;;;10.20;99.90;;;;;;4989754;28;20293;-69
2021/10/07 02:18:54;;;;;;;3.07;2.77;;;10.20;99.90;;;;;;4980516;28;20264;-69
2021/10/07 02:21:21;;;;;;;3.20;2.90;;;10.20;99.90;;;;;;4988508;28;20228;-69
2021/10/07 02:23:48;;;;;;;5.27;2.83;;;10.20;99.90;;;;;;4990749;28;20205;-69
2021/10/07 02:26:16;;;;;;;3.30;3.00;;;10.20;99.90;;;;;;4989147;28;20205;-69
2021/10/07 02:28:44;;;;;;;4.10;2.70;;;10.20;99.90;;;;;;4990259;28;20255;-69
2021/10/07 02:31:11;;;;;;;4.90;3.00;;;10.20;99.90;;;;;;4989167;28;20624;-69
2021/10/07 02:33:38;;;;;;;4.80;2.80;;;10.40;99.90;;;;;;4985837;28;20256;-69
2021/10/07 02:36:06;;;;;;;3.90;2.43;;;10.40;99.90;;;;;;4989144;28;20256;-69
2021/10/07 02:38:33;;;;;;;3.97;2.57;;;10.30;99.90;;;;;;4990617;28;20205;-69
2021/10/07 02:41:00;;;;;;;2.57;2.30;;;10.30;99.90;;;;;;4983540;28;20214;-69
2021/10/07 02:43:27;;;;;;;4.40;2.80;;;10.30;99.90;;;;;;4994726;28;20251;-69
2021/10/07 02:45:56;;;;;;;5.80;3.30;;;10.20;99.90;;;;;;4986720;28;20206;-69
2021/10/07 02:48:23;;;;;;;5.03;3.50;;;10.30;99.90;;;;;;4991272;28;20201;-69
2021/10/07 02:50:50;;;;;;;5.00;3.20;;;10.20;99.90;;;;;;4988791;28;20698;-69
2021/10/07 02:53:17;;;;;;;5.33;3.30;;;10.30;99.90;;;;;;4990269;28;20264;-69
2021/10/07 02:55:44;;;;;;;4.60;3.40;;;10.30;99.90;;;;;;4989204;28;20201;-69
2021/10/07 02:58:11;;;;;;;5.57;3.50;;;10.40;99.90;;;;;;4992910;28;20258;-69
2021/10/07 03:00:38;;;;;;;5.80;3.50;;;10.50;99.90;;;;;;4988036;28;20626;-69
2021/10/07 03:03:07;;;;;;;3.80;3.40;;;10.50;99.90;;;;;;4989874;28;20628;-69
2021/10/07 03:05:35;;;;;;;5.67;3.70;;;10.60;99.90;;;;;;4989729;28;20217;-69
2021/10/07 03:08:02;;;;;;;5.80;3.47;;;10.50;99.90;;;;;;4987678;28;20233;-69
2021/10/07 03:10:29;;;;;;;4.03;3.03;;;10.60;99.90;;;;;;4987511;28;20632;-69
2021/10/07 03:12:57;;;;;;;6.63;3.70;;;10.60;99.90;;;;;;4988194;28;20205;-69
2021/10/07 03:15:24;;;;;;;4.03;3.30;;;10.60;99.90;;;;;;4985921;28;20244;-69
2021/10/07 03:17:51;;;;;;;5.67;3.40;;;10.50;99.90;;;;;;4989875;28;20718;-69
2021/10/07 03:20:20;;;;;;;3.97;3.30;;;10.50;99.90;;;;;;4991097;28;20231;-69
2021/10/07 03:22:47;;;;;;;4.17;3.77;;;10.60;99.90;;;;;;4991448;28;20259;-69
2021/10/07 03:25:15;;;;;;;6.00;3.97;;;10.60;99.90;;;;;;4989547;28;20260;-69
2021/10/07 03:27:42;;;;;;;7.27;4.27;;;10.50;99.90;;;;;;4987863;28;20620;-69
2021/10/07 03:30:10;;;;;;;4.97;3.90;;;10.50;99.90;;;;;;4991442;28;20660;-69
2021/10/07 03:32:37;;;;;;;5.70;3.80;;;10.40;99.90;;;;;;4983638;28;20205;-69
2021/10/07 03:35:06;;;;;;;7.20;3.53;;;10.40;99.90;;;;;;4991958;28;20256;-69
2021/10/07 03:37:37;;;;;;;6.00;3.60;;;10.50;99.90;;;;;;4985515;28;20201;-69
2021/10/07 03:40:05;;;;;;;4.63;3.77;;;10.50;99.90;;;;;;4988222;28;20296;-69
2021/10/07 03:42:32;;;;;;;6.23;3.70;;;10.60;99.90;;;;;;4989175;28;20600;-69
2021/10/07 03:45:01;;;;;;;6.17;3.73;;;10.60;99.90;;;;;;4990430;28;20275;-69
2021/10/07 03:47:28;;;;;;;8.03;4.17;;;10.60;99.90;;;;;;4988838;28;20692;-69
2021/10/07 03:49:56;;;;;;;5.83;4.33;;;10.50;99.90;;;;;;4975564;28;20720;-69
2021/10/07 03:52:23;;;;;;;6.23;4.17;;;10.50;99.90;;;;;;4989686;28;20205;-69
2021/10/07 03:54:52;;;;;;;5.83;4.13;;;10.50;99.90;;;;;;4994194;28;20204;-69
2021/10/07 03:57:19;;;;;;;7.13;4.20;;;10.40;99.90;;;;;;4991722;28;20513;-69
2021/10/07 03:59:46;;;;;;;7.37;4.17;;;10.50;99.90;;;;;;4985678;28;20206;-69
2021/10/07 04:02:13;;;;;;;6.40;4.00;;;10.50;99.90;;;;;;4987496;28;20229;-69
2021/10/07 04:04:41;;;;;;;5.20;3.80;;;10.50;99.90;;;;;;4993197;28;20710;-69
2021/10/07 04:07:08;;;;;;;5.10;3.70;;;10.50;99.90;;;;;;4993068;28;20614;-69
2021/10/07 04:09:35;;;;;;;6.00;4.33;;;10.40;99.90;;;;;;4993576;28;20201;-69
2021/10/07 04:12:04;;;;;;;6.50;3.80;;;10.40;99.90;;;;;;4992362;28;20205;-69
2021/10/07 04:14:31;;;;;;;5.97;3.63;;;10.40;99.90;;;;;;4991633;28;20205;-69
2021/10/07 04:16:58;;;;;;;5.07;4.17;;;10.60;99.90;;;;;;4994289;28;20260;-69
2021/10/07 04:19:25;;;;;;;6.47;4.10;;;10.50;99.90;;;;;;4998532;28;20259;-69
2021/10/07 04:21:52;;;;;;;7.60;3.93;;;10.50;99.90;;;;;;4992513;28;20291;-69
2021/10/07 04:24:19;;;;;;;8.90;3.90;;;10.30;99.90;;;;;;4993822;28;20663;-69
2021/10/07 04:26:46;;;;;;;6.20;3.87;;;10.30;99.90;;;;;;4994370;28;20205;-69
2021/10/07 04:29:15;;;;;;;5.43;3.70;;;10.40;99.90;;;;;;4991749;28;20656;-69
2021/10/07 04:31:42;;;;;;;8.80;3.63;;;10.30;99.90;;;;;;4997159;28;20240;-69
2021/10/07 04:34:09;;;;;;;7.67;4.03;;;10.30;99.90;;;;;;4988604;28;20550;-69
2021/10/07 04:36:36;;;;;;;7.63;3.93;;;10.30;99.90;;;;;;4990083;28;20203;-69
2021/10/07 04:39:04;;;;;;;7.93;4.83;;;10.30;99.90;;;;;;4987479;28;20201;-69
2021/10/07 04:41:31;;;;;;;7.60;4.60;;;10.30;99.90;;;;;;4987851;28;20650;-73
2021/10/07 04:43:58;;;;;;;6.13;3.70;;;10.30;99.90;;;;;;4985602;28;20362;-68
2021/10/07 04:46:27;;;;;;;4.60;4.00;;;10.30;99.90;;;;;;4988978;28;20206;-68
2021/10/07 04:48:55;;;;;;;4.53;3.90;;;10.40;99.90;;;;;;4988397;28;20635;-68
2021/10/07 04:51:23;;;;;;;9.33;3.70;;;10.40;99.90;;;;;;4987863;28;20299;-69
2021/10/07 04:53:50;;;;;;;5.30;3.67;;;10.40;99.90;;;;;;4992621;28;20213;-68
2021/10/07 04:56:17;;;;;;;6.90;3.53;;;10.50;99.90;;;;;;4992788;28;20212;-68
2021/10/07 04:58:44;;;;;;;4.60;3.30;;;10.50;99.90;;;;;;4986219;28;20209;-68
2021/10/07 05:01:12;;;;;;;5.77;3.50;;;10.50;99.90;;;;;;4988582;28;20290;-69
2021/10/07 05:03:40;;;;;;;5.27;4.13;;;10.50;99.90;;;;;;4988497;28;20213;-68
2021/10/07 05:06:07;;;;;;;4.77;3.70;;;10.40;99.90;;;;;;4987885;28;20209;-77
2021/10/07 05:08:35;;;;;;;4.07;3.63;;;10.40;99.90;;;;;;4989428;28;20369;-77
2021/10/07 05:11:02;;;;;;;5.23;3.90;;;10.30;99.90;;;;;;4991906;28;20213;-77
2021/10/07 05:13:29;;;;;;;5.67;4.10;;;10.40;99.90;;;;;;4989582;28;20202;-77
2021/10/07 05:15:56;;;;;;;5.83;3.70;;;10.30;99.90;;;;;;4989712;28;20568;-77
2021/10/07 05:18:24;;;;;;;5.70;4.10;;;10.40;99.90;;;;;;4991830;28;20656;-77
2021/10/07 05:20:53;;;;;;;5.80;4.33;;;10.40;99.90;;;;;;4991307;28;20279;-77
2021/10/07 05:23:20;;;;;;;7.33;4.30;;;10.40;99.90;;;;;;4989518;28;20419;-77
2021/10/07 05:25:48;;;;;;;5.40;3.97;;;10.30;99.90;;;;;;4991281;28;20205;-77
2021/10/07 05:28:16;;;;;;;6.93;4.20;;;10.30;99.90;;;;;;4992203;28;20205;-77
2021/10/07 05:30:43;;;;;;;5.33;4.33;;;10.30;99.90;;;;;;4990099;28;20260;-76
2021/10/07 05:33:10;;;;;;;7.87;4.40;;;10.20;99.90;;;;;;4985241;28;20260;-77
2021/10/07 05:35:37;;;;;;;7.03;3.80;;;10.00;99.90;;;;;;4992451;28;20205;-77
2021/10/07 05:38:05;;;;;;;10.97;4.07;;;10.10;99.90;;;;;;4991326;28;20205;-77
2021/10/07 05:40:32;;;;;;;9.17;4.07;;;10.10;99.90;;;;;;4988623;28;20205;-77
2021/10/07 05:43:00;;;;;;;7.80;4.60;;;10.10;99.90;;;;;;4991736;28;20233;-77
2021/10/07 05:45:27;;;;;;;4.83;3.70;;;10.10;99.90;;;;;;4985927;28;20269;-77
2021/10/07 05:47:54;;;;;;;5.13;4.03;;;10.10;99.90;;;;;;4987960;28;20213;-77
2021/10/07 05:50:21;;;;;;;6.03;3.93;;;10.10;99.90;;;;;;4991672;28;20205;-77
2021/10/07 05:52:48;;;;;;;6.63;3.90;;;10.20;99.90;;;;;;4989966;28;20209;-77
2021/10/07 05:55:16;;;;;;;6.87;3.83;;;10.20;99.90;;;;;;4990960;28;20613;-77
2021/10/07 05:57:44;;;;;;;7.17;4.13;;;10.00;99.90;;;;;;4990790;28;20209;-76
2021/10/07 06:00:12;;;;;;;8.00;4.20;;;9.90;99.90;;;;;;4988590;28;20619;-77
2021/10/07 06:02:40;;;;;;;7.47;3.97;;;9.90;99.90;;;;;;4990493;28;20287;-77
2021/10/07 06:05:08;;;;;;;7.13;4.30;;;9.90;99.90;;;;;;4991701;28;20684;-77
2021/10/07 06:07:35;;;;;;;6.17;4.23;;;9.90;99.90;;;;;;4990459;28;20201;-76
2021/10/07 06:10:05;;;;;;;5.70;4.27;;;9.90;99.90;;;;;;4989712;28;20212;-77
2021/10/07 06:12:33;;;;;;;4.97;4.00;;;9.80;99.90;;;;;;4991474;28;20285;-77
2021/10/07 06:15:01;;;;;;;5.23;4.07;;;9.70;99.90;;;;;;4992616;28;20612;-77
2021/10/07 06:17:28;;;;;;;4.00;3.60;;;9.70;99.90;;;;;;4991094;28;20209;-77
2021/10/07 06:20:00;;;;;;;6.27;4.30;;;9.60;99.90;;;;;;4983048;28;20218;-77
2021/10/07 06:22:27;;;;;;;6.43;4.23;;;9.40;99.90;;;;;;4981423;28;20679;-77
2021/10/07 06:24:54;;;;;;;6.97;3.50;;;9.50;99.90;;;;;;4991256;28;20263;-77
2021/10/07 06:27:21;;;;;;;5.97;4.07;;;9.40;99.90;;;;;;4991006;28;20257;-77
2021/10/07 06:29:50;;;;;;;4.53;3.90;;;9.40;99.90;;;;;;4990313;28;20209;-77
2021/10/07 06:32:17;;;;;;;5.07;3.70;;;9.40;99.90;;;;;;4991275;28;20279;-77
2021/10/07 06:34:44;;;;;;;5.03;3.90;;;9.30;99.90;;;;;;4991468;28;20476;-77
2021/10/07 06:37:11;;;;;;;8.33;4.00;;;9.40;99.90;;;;;;4991717;28;20565;-77
2021/10/07 06:39:38;;;;;;;6.40;4.23;;;9.40;99.90;;;;;;4987400;28;20197;-77
2021/10/07 06:42:05;;;;;;;7.23;4.07;;;9.50;99.90;;;;;;4993292;28;20769;-77
2021/10/07 06:44:33;;;;;;;7.17;4.57;;;9.50;99.90;;;;;;4988577;28;20197;-77
2021/10/07 06:47:01;;;;;;;7.80;4.20;;;9.60;99.90;;;;;;4988441;28;20251;-76
2021/10/07 06:49:28;;;;;;;8.10;4.97;;;9.70;99.90;;;;;;4985316;28;20201;-77
2021/10/07 06:51:55;;;;;;;9.50;5.07;;;9.70;99.90;;;;;;4989821;28;20263;-77
2021/10/07 06:54:22;;;;;;;6.17;4.30;;;9.60;99.90;;;;;;4990426;28;20213;-77
2021/10/07 06:56:49;;;;;;;10.07;5.07;;;9.60;99.90;;;;;;4993038;28;20611;-77
2021/10/07 06:59:16;;;;;;;4.90;3.77;;;9.60;99.90;;;;;;4990419;28;20256;-77
2021/10/07 07:01:43;;;;;;;7.30;4.53;;;9.60;99.90;;;;;;4988925;28;20228;-77
2021/10/07 07:04:16;;;;;;;5.63;4.60;;;9.70;99.90;;;;;;4983318;28;20256;-77
2021/10/07 07:06:45;;;;;;;5.03;4.00;;;9.70;99.90;;;;;;4989276;28;20205;-77
2021/10/07 07:09:12;;;;;;;8.17;4.67;;;9.80;99.90;;;;;;4986733;28;20300;-77
2021/10/07 07:11:39;;;;;;;6.40;5.00;;;9.80;99.90;;;;;;4990595;28;20280;-77
2021/10/07 07:14:06;;;;;;;6.87;4.80;;;9.90;99.90;;;;;;4987025;28;20216;-77
2021/10/07 07:16:34;;;;;;;7.30;4.30;;;9.90;99.90;;;;;;4989516;28;20300;-77
2021/10/07 07:19:01;;;;;;;6.27;4.40;;;9.90;99.90;;;;;;4989056;28;20213;-77
2021/10/07 07:21:32;;;;;;;9.60;4.97;;;10.00;99.90;;;;;;4990151;28;20213;-77
2021/10/07 07:24:00;;;;;;;9.10;4.77;;;10.10;99.90;;;;;;4989619;28;20723;-77
2021/10/07 07:26:27;;;;;;;8.33;4.80;;;10.20;99.90;;;;;;4985113;28;20668;-77
2021/10/07 07:28:55;;;;;;;8.40;5.30;;;10.40;99.90;;;;;;4991279;28;20205;-77
2021/10/07 07:31:23;;;;;;;8.33;5.00;;;10.80;99.90;;;;;;4994644;28;20718;-77
2021/10/07 07:33:50;;;;;;;5.77;4.73;;;10.80;99.90;;;;;;4992035;28;20212;-77
2021/10/07 07:36:18;;;;;;;8.60;5.00;;;10.90;99.90;;;;;;4987835;28;20237;-77
2021/10/07 07:38:47;;;;;;;10.83;5.17;;;10.90;99.90;;;;;;4990919;28;20201;-77
2021/10/07 07:41:15;;;;;;;7.87;5.13;;;11.10;99.90;;;;;;4991796;28;20256;-77
2021/10/07 07:43:42;;;;;;;9.20;5.00;;;11.20;99.90;;;;;;4993652;28;20595;-77
2021/10/07 07:46:10;;;;;;;8.63;5.20;;;11.30;99.90;;;;;;4992735;28;20260;-77
2021/10/07 07:48:37;;;;;;;6.93;5.10;;;11.40;99.90;;;;;;4990380;28;20634;-77
2021/10/07 07:51:05;;;;;;;7.57;4.60;;;11.60;99.90;;;;;;4994096;28;20259;-77
2021/10/07 07:53:32;;;;;;;8.90;5.20;;;11.60;99.90;;;;;;4993628;28;20205;-77
2021/10/07 07:56:01;;;;;;;9.17;5.27;;;11.60;99.90;;;;;;4990443;28;20205;-77
2021/10/07 07:58:28;;;;;;;9.53;5.63;;;11.80;99.90;;;;;;4994579;28;20217;-77
2021/10/07 08:00:55;;;;;;;9.33;5.93;;;12.00;99.90;;;;;;4990262;28;20208;-77
2021/10/07 08:03:25;;;;;;;13.67;5.43;;;12.00;99.90;;;;;;4988466;28;20670;-77
2021/10/07 08:05:52;;;;;;;8.73;5.60;;;12.00;99.90;;;;;;4988366;28;20216;-77
2021/10/07 08:08:19;;;;;;;11.10;6.03;;;12.10;99.90;;;;;;4990372;28;20209;-77
2021/10/07 08:10:46;;;;;;;11.17;5.73;;;12.00;99.90;;;;;;4991525;28;20271;-77
2021/10/07 08:13:16;;;;;;;11.83;6.00;;;12.20;99.90;;;;;;4992906;28;20205;-77
2021/10/07 08:15:43;;;;;;;9.80;6.03;;;12.30;99.90;;;;;;4989451;28;20229;-77
2021/10/07 08:18:13;;;;;;;11.40;6.47;;;12.40;99.90;;;;;;4981818;28;20664;-77
2021/10/07 08:20:41;;;;;;;10.60;5.77;;;12.30;99.90;;;;;;4994249;28;20209;-77
2021/10/07 08:23:11;;;;;;;10.57;6.90;;;12.30;99.90;;;;;;4993408;28;20229;-77
2021/10/07 08:25:39;;;;;;;9.63;6.03;;;12.40;99.90;;;;;;4992181;28;20205;-77
2021/10/07 08:28:06;;;;;;;9.73;6.13;;;12.40;99.90;;;;;;4993663;28;20209;-77
2021/10/07 08:30:35;;;;;;;10.97;6.13;;;12.40;99.90;;;;;;4991345;28;20612;-77
2021/10/07 08:33:02;;;;;;;13.30;6.60;;;12.50;99.90;;;;;;4992116;28;20209;-77
2021/10/07 08:35:30;;;;;;;10.73;6.43;;;12.60;99.90;;;;;;4991968;28;20299;-77
2021/10/07 08:37:57;;;;;;;10.57;6.20;;;12.60;99.90;;;;;;5006465;28;20212;-77
2021/10/07 08:40:24;;;;;;;8.97;5.60;;;12.70;99.90;;;;;;4990498;28;20209;-77
2021/10/07 08:42:51;;;;;;;9.30;5.97;;;12.80;99.90;;;;;;4990491;28;20228;-77
2021/10/07 08:45:19;;;;;;;10.60;6.63;;;13.10;99.90;;;;;;4990416;28;20292;-77
2021/10/07 08:47:49;;;;;;;11.87;6.73;;;13.10;99.90;;;;;;4992634;28;20205;-77
2021/10/07 08:50:19;;;;;;;8.93;5.90;;;13.30;99.90;;;;;;4993102;28;20201;-77
2021/10/07 08:52:46;;;;;;;10.67;6.57;;;13.40;99.90;;;;;;4991941;28;20215;-78
2021/10/07 08:55:13;;;;;;;11.63;5.83;;;13.50;99.90;;;;;;4992048;28;20289;-77
2021/10/07 08:57:40;;;;;;;8.40;5.00;;;13.60;99.90;;;;;;4993095;28;20205;-77
2021/10/07 09:00:12;;;;;;;7.13;5.30;;;13.70;99.90;;;;;;4992069;28;20249;-78
2021/10/07 09:02:40;;;;;;;7.17;5.70;;;13.80;99.90;;;;;;4992562;28;20321;-78
2021/10/07 09:05:12;;;;;;;9.60;5.77;;;13.90;99.90;;;;;;4992532;28;20217;-78
2021/10/07 09:07:54;;;;;;;6.97;5.43;;;13.80;99.90;;;;;;4992116;28;20215;-78
2021/10/07 09:10:21;;;;;;;10.97;5.20;;;14.00;99.90;;;;;;4984992;28;20255;-78
2021/10/07 09:13:04;;;;;;;6.60;5.10;;;14.20;99.90;;;;;;4986427;28;20271;-78
2021/10/07 09:15:31;;;;;;;6.30;4.83;;;14.20;99.90;;;;;;4985964;28;20201;-78
2021/10/07 09:18:03;;;;;;;6.83;5.13;;;14.20;99.90;;;;;;4985661;28;20259;-78
2021/10/07 09:20:36;;;;;;;7.03;5.10;;;14.10;99.90;;;;;;4987623;28;20205;-78
2021/10/07 09:23:08;;;;;;;10.00;5.10;;;14.20;99.90;;;;;;4991562;28;20769;-78
2021/10/07 09:25:57;;;;;;;7.60;4.80;;;14.30;99.90;;;;;;4991319;28;20252;-78
2021/10/07 09:28:25;;;;;;;8.47;4.53;;;14.30;99.90;;;;;;4989385;28;20663;-78
2021/10/07 09:30:57;;;;;;;9.37;4.50;;;14.20;99.90;;;;;;4992489;28;20288;-78
2021/10/07 09:33:29;;;;;;;9.93;5.03;;;14.30;99.90;;;;;;4990189;28;20216;-78
2021/10/07 09:36:17;;;;;;;6.67;4.83;;;14.50;99.90;;;;;;4991007;28;20213;-78
2021/10/07 09:38:46;;;;;;;7.23;4.77;;;14.70;99.90;;;;;;4987812;28;20718;-78
2021/10/07 09:41:15;;;;;;;6.17;4.70;;;14.80;99.90;;;;;;4990421;28;20223;-78
2021/10/07 09:43:48;;;;;;;8.87;5.20;;;14.80;99.90;;;;;;4986734;28;20237;-78
2021/10/07 09:46:39;;;;;;;7.50;4.87;;;14.80;99.90;;;;;;4989471;28;20214;-79
2021/10/07 09:49:07;;;;;;;10.20;5.23;;;14.80;99.90;;;;;;4989359;28;20723;-78
2021/10/07 09:51:43;;;;;;;7.60;5.10;;;14.80;99.90;;;;;;4989871;28;20208;-78
2021/10/07 09:54:11;;;;;;;8.57;5.03;;;15.60;99.90;;;;;;4991186;28;20292;-78
2021/10/07 09:56:38;;;;;;;7.13;4.90;;;16.20;99.90;;;;;;4990604;28;20723;-78
2021/10/07 09:59:07;;;;;;;6.77;4.40;;;16.10;99.90;;;;;;4991305;28;20236;-79
2021/10/07 10:01:35;;;;;;;7.97;5.20;;;16.10;99.90;;;;;;4988424;28;20219;-78
2021/10/07 10:04:02;;;;;;;8.00;4.75;;;16.00;99.90;;;;;;4990734;28;20229;-78
2021/10/07 10:06:30;;;;;;;6.03;4.57;;;15.80;99.90;;;;;;4992062;28;20204;-78
2021/10/07 10:08:58;;;;;;;6.32;4.25;;;15.80;99.90;;;;;;4989616;28;20213;-78
2021/10/07 10:11:25;;;;;;;4.90;3.85;;;15.60;99.90;;;;;;4989072;28;20201;-79
2021/10/07 10:13:52;;;;;;;4.82;3.75;;;15.60;99.90;;;;;;4990755;28;20209;-78
2021/10/07 10:16:20;;;;;;;6.60;4.20;;;15.70;99.90;;;;;;4987781;28;20254;-78
2021/10/07 10:18:56;;;;;;;4.70;4.20;;;15.60;99.90;;;;;;4990542;28;20275;-78
2021/10/07 10:21:25;;;;;;;4.87;3.47;;;15.50;99.90;;;;;;4971979;28;20220;-79
2021/10/07 10:23:54;;;;;;;7.38;4.15;;;15.50;99.90;;;;;;4989797;28;20275;-78
2021/10/07 10:26:23;;;;;;;5.13;4.40;;;15.40;99.90;;;;;;4987761;28;20205;-78
2021/10/07 10:28:52;;;;;;;5.50;3.97;;;15.60;99.90;;;;;;4990842;28;20208;-78
2021/10/07 10:31:32;;;;;;;6.28;3.70;;;15.80;99.90;;;;;;4978610;28;20573;-78
2021/10/07 10:34:06;;;;;;;4.70;3.72;;;16.10;99.90;;;;;;4982165;28;20292;-79
2021/10/07 10:36:37;;;;;;;4.90;3.60;;;16.20;99.90;;;;;;5004167;28;20278;-78
2021/10/07 10:39:08;;;;;;;5.25;3.92;;;16.40;99.90;;;;;;4991063;28;20288;-78
2021/10/07 10:41:45;;;;;;;5.45;4.05;;;16.90;99.90;;;;;;4991084;28;20237;-79
2021/10/07 10:44:40;;;;;;;6.10;3.60;;;17.50;99.90;;;;;;4968299;28;20755;-78
2021/10/07 10:47:23;;;;;;;5.68;4.20;;;18.00;99.90;;;;;;4968238;28;20217;-78
2021/10/07 10:50:01;;;;;;;5.07;3.63;;;17.70;99.90;;;;;;4988805;28;20209;-78
2021/10/07 10:52:30;;;;;;;5.75;3.90;;;17.70;99.90;;;;;;4991394;28;20635;-78
2021/10/07 10:54:58;;;;;;;6.03;3.35;;;17.30;99.90;;;;;;4990545;28;20209;-78
2021/10/07 10:57:30;;;;;;;6.60;4.13;;;17.10;99.90;;;;;;4985239;28;20231;-79
2021/10/07 11:00:10;;;;;;;4.88;3.50;;;17.00;99.90;;;;;;4990364;28;20209;-78
2021/10/07 11:02:38;;;;;;;4.50;3.25;;;17.10;99.90;;;;;;4990562;28;20255;-78
2021/10/07 11:05:21;;;;;;;4.25;3.10;;;17.40;99.90;;;;;;4992956;28;20208;-79
2021/10/07 11:08:04;;;;;;;3.72;2.88;;;17.60;99.90;;;;;;4993694;28;20307;-78
2021/10/07 11:10:32;;;;;;;8.07;3.13;;;17.40;99.90;;;;;;4990746;28;20259;-78
2021/10/07 11:13:01;;;;;;;5.38;3.25;;;17.80;99.90;;;;;;4993596;28;20208;-78
2021/10/07 11:15:29;;;;;;;5.07;3.47;;;17.70;99.90;;;;;;4992757;28;20204;-78
2021/10/07 11:17:59;;;;;;;6.53;2.42;;;17.40;99.90;;;;;;4990788;28;20280;-78
2021/10/07 11:20:28;;;;;;;4.38;2.47;;;16.90;99.90;;;;;;4992378;28;20288;-78
2021/10/07 11:23:04;;;;;;;4.40;3.03;;;17.10;99.90;;;;;;4993597;28;20239;-78
2021/10/07 11:25:31;;;;;;;4.03;3.00;;;17.20;99.90;;;;;;4992189;28;20205;-79
2021/10/07 11:27:59;;;;;;;3.40;2.65;;;17.00;99.90;;;;;;4993997;28;20197;-78
2021/10/07 11:30:31;;;;;;;3.22;2.75;;;17.00;99.90;;;;;;4994415;28;20213;-78
2021/10/07 11:33:00;;;;;;;2.88;2.63;;;16.90;99.90;;;;;;4992692;28;20212;-78
2021/10/07 11:35:28;;;;;;;3.00;2.60;;;16.90;99.90;;;;;;4992543;28;20211;-78
2021/10/07 11:37:59;;;;;;;4.75;2.70;;;16.90;99.90;;;;;;4991864;28;20212;-78
2021/10/07 11:40:31;;;;;;;5.25;2.38;;;16.90;99.90;;;;;;4993414;28;20247;-78
2021/10/07 11:43:01;;;;;;;4.30;2.50;;;16.90;99.90;;;;;;4992357;28;20232;-78
2021/10/07 11:45:31;;;;;;;3.35;2.78;;;17.00;99.90;;;;;;4992611;28;20205;-78
2021/10/07 11:48:00;;;;;;;3.28;2.50;;;16.90;99.90;;;;;;4994021;28;20212;-78
2021/10/07 11:50:28;;;;;;;2.83;1.90;;;17.00;99.90;;;;;;4992443;28;20260;-78
2021/10/07 11:52:57;;;;;;;2.70;2.05;;;16.90;99.90;;;;;;4994037;28;20205;-78
2021/10/07 11:55:25;;;;;;;3.85;2.30;;;17.20;99.90;;;;;;4987003;28;20205;-78
2021/10/07 11:57:55;;;;;;;2.67;2.20;;;17.20;99.90;;;;;;4992887;28;20209;-78
2021/10/07 12:00:51;;;;;;;4.20;2.33;;;17.40;99.90;;;;;;4989263;28;20213;-78
2021/10/07 12:03:21;;;;;;;2.75;2.50;;;17.40;99.90;;;;;;4965290;28;20299;-78
2021/10/07 12:05:53;;;;;;;2.65;2.45;;;17.30;99.90;;;;;;4989670;28;20267;-79
2021/10/07 12:08:22;;;;;;;3.15;2.20;;;17.50;99.90;;;;;;4993382;28;20232;-78
2021/10/07 12:10:51;;;;;;;4.28;2.40;;;17.40;99.90;;;;;;4990958;28;20209;-79
2021/10/07 12:13:20;;;;;;;5.43;2.20;;;17.30;99.90;;;;;;4993665;28;20647;-78
2021/10/07 12:15:51;;;;;;;2.65;2.45;;;17.20;99.90;;;;;;4992035;28;20576;-78
2021/10/07 12:18:20;;;;;;;4.13;2.15;;;17.30;99.90;;;;;;4993604;28;20651;-78
2021/10/07 12:21:02;;;;;;;3.75;2.40;;;17.30;99.90;;;;;;4990544;28;20221;-79
2021/10/07 12:23:29;;;;;;;3.47;2.50;;;17.40;99.90;;;;;;4991660;28;20283;-78
2021/10/07 12:25:59;;;;;;;3.17;2.60;;;17.40;99.90;;;;;;4989541;28;20209;-78
2021/10/07 12:28:27;;;;;;;4.20;2.40;;;17.40;99.90;;;;;;4990086;28;20268;-78
2021/10/07 12:30:58;;;;;;;3.83;2.95;;;17.20;99.90;;;;;;4990353;28;20213;-78
2021/10/07 12:33:28;;;;;;;4.07;2.50;;;16.80;99.90;;;;;;4991175;28;20260;-79
2021/10/07 12:36:00;;;;;;;3.78;2.90;;;16.80;99.90;;;;;;4992725;28;20663;-78
2021/10/07 12:38:30;;;;;;;4.00;1.83;;;16.70;99.90;;;;;;4992567;28;20201;-78
2021/10/07 12:41:00;;;;;;;2.30;2.10;;;16.70;99.90;;;;;;4991369;28;20212;-78
2021/10/07 12:43:28;;;;;;;3.60;2.10;;;16.60;99.90;;;;;;4991725;28;20276;-78
2021/10/07 12:46:08;;;;;;;2.60;2.05;;;16.50;99.90;;;;;;4992625;28;20296;-78
2021/10/07 12:48:49;;;;;;;2.97;2.05;;;16.70;99.90;;;;;;4988176;28;20855;-78
2021/10/07 12:51:17;;;;;;;3.40;2.00;;;16.80;99.90;;;;;;4983192;28;20682;-78
2021/10/07 12:53:46;;;;;;;2.63;1.60;;;17.00;99.90;;;;;;4983219;28;20237;-76
2021/10/07 12:56:15;;;;;;;3.25;2.00;;;17.20;99.90;;;;;;4990113;28;20268;-78
2021/10/07 12:58:50;;;;;;;2.30;2.10;;;17.20;99.90;;;;;;4991874;28;20711;-78
2021/10/07 13:01:21;;;;;;;4.15;1.70;;;17.10;99.90;;;;;;4988034;28;20240;-77